sensor_id;sensor_type;location;lat;lon;timestamp;P1;durP1;ratioP1;P2;durP2;ratioP2
69837;SDS011;57135;51.992;4.476;2023-03-11T00:01:23;2.62;;;1.84;;
69837;SDS011;57135;51.992;4.476;2023-03-11T00:03:49;2.93;;;2.06;;
69837;SDS011;57135;51.992;4.476;2023-03-11T00:06:14;2.81;;;1.96;;
69837;SDS011;57135;51.992;4.476;2023-03-11T00:08:40;2.70;;;1.90;;
69837;SDS011;57135;51.992;4.476;2023-03-11T00:11:05;3.03;;;2.14;;
69837;SDS011;57135;51.992;4.476;2023-03-11T00:13:31;2.78;;;1.97;;
69837;SDS011;57135;51.992;4.476;2023-03-11T00:15:57;2.47;;;1.74;;
69837;SDS011;57135;51.992;4.476;2023-03-11T00:18:24;2.83;;;1.96;;
69837;SDS011;57135;51.992;4.476;2023-03-11T00:20:52;3.17;;;2.15;;
69837;SDS011;57135;51.992;4.476;2023-03-11T00:23:19;3.41;;;2.27;;
69837;SDS011;57135;51.992;4.476;2023-03-11T00:25:45;3.53;;;2.30;;
69837;SDS011;57135;51.992;4.476;2023-03-11T00:28:11;3.37;;;2.20;;
69837;SDS011;57135;51.992;4.476;2023-03-11T00:30:38;3.05;;;2.01;;
69837;SDS011;57135;51.992;4.476;2023-03-11T00:33:05;3.56;;;2.33;;
69837;SDS011;57135;51.992;4.476;2023-03-11T00:35:32;3.76;;;2.48;;
69837;SDS011;57135;51.992;4.476;2023-03-11T00:38:00;3.61;;;2.39;;
69837;SDS011;57135;51.992;4.476;2023-03-11T00:40:29;3.29;;;2.15;;
69837;SDS011;57135;51.992;4.476;2023-03-11T00:42:57;3.28;;;2.18;;
69837;SDS011;57135;51.992;4.476;2023-03-11T00:45:23;3.50;;;2.35;;
69837;SDS011;57135;51.992;4.476;2023-03-11T00:47:49;3.39;;;2.27;;
69837;SDS011;57135;51.992;4.476;2023-03-11T00:50:16;3.27;;;2.20;;
69837;SDS011;57135;51.992;4.476;2023-03-11T00:52:45;3.06;;;2.06;;
69837;SDS011;57135;51.992;4.476;2023-03-11T00:55:12;3.56;;;2.41;;
69837;SDS011;57135;51.992;4.476;2023-03-11T00:57:40;3.18;;;2.16;;
69837;SDS011;57135;51.992;4.476;2023-03-11T01:00:07;3.20;;;2.17;;
69837;SDS011;57135;51.992;4.476;2023-03-11T01:02:36;3.35;;;2.25;;
69837;SDS011;57135;51.992;4.476;2023-03-11T01:05:02;2.90;;;1.98;;
69837;SDS011;57135;51.992;4.476;2023-03-11T01:07:29;3.29;;;2.28;;
69837;SDS011;57135;51.992;4.476;2023-03-11T01:09:55;3.09;;;2.14;;
69837;SDS011;57135;51.992;4.476;2023-03-11T01:12:20;3.14;;;2.22;;
69837;SDS011;57135;51.992;4.476;2023-03-11T01:14:46;2.89;;;2.09;;
69837;SDS011;57135;51.992;4.476;2023-03-11T01:17:11;2.69;;;1.94;;
69837;SDS011;57135;51.992;4.476;2023-03-11T01:19:36;2.84;;;2.04;;
69837;SDS011;57135;51.992;4.476;2023-03-11T01:22:02;2.57;;;1.85;;
69837;SDS011;57135;51.992;4.476;2023-03-11T01:24:27;3.03;;;2.19;;
69837;SDS011;57135;51.992;4.476;2023-03-11T01:26:53;2.92;;;2.13;;
69837;SDS011;57135;51.992;4.476;2023-03-11T01:29:18;2.82;;;2.03;;
69837;SDS011;57135;51.992;4.476;2023-03-11T01:31:44;2.73;;;1.97;;
69837;SDS011;57135;51.992;4.476;2023-03-11T01:34:09;2.69;;;1.93;;
69837;SDS011;57135;51.992;4.476;2023-03-11T01:36:34;2.82;;;2.04;;
69837;SDS011;57135;51.992;4.476;2023-03-11T01:39:00;2.84;;;2.03;;
69837;SDS011;57135;51.992;4.476;2023-03-11T01:41:25;3.12;;;2.22;;
69837;SDS011;57135;51.992;4.476;2023-03-11T01:43:52;2.99;;;2.16;;
69837;SDS011;57135;51.992;4.476;2023-03-11T01:46:20;3.14;;;2.29;;
69837;SDS011;57135;51.992;4.476;2023-03-11T01:48:51;3.08;;;2.25;;
69837;SDS011;57135;51.992;4.476;2023-03-11T01:51:29;2.78;;;2.08;;
69837;SDS011;57135;51.992;4.476;2023-03-11T01:54:01;2.64;;;2.00;;
69837;SDS011;57135;51.992;4.476;2023-03-11T01:56:31;2.76;;;2.08;;
69837;SDS011;57135;51.992;4.476;2023-03-11T01:58:58;2.66;;;1.99;;
69837;SDS011;57135;51.992;4.476;2023-03-11T02:01:24;2.26;;;1.69;;
69837;SDS011;57135;51.992;4.476;2023-03-11T02:03:50;2.77;;;2.05;;
69837;SDS011;57135;51.992;4.476;2023-03-11T02:06:17;2.79;;;2.08;;
69837;SDS011;57135;51.992;4.476;2023-03-11T02:08:45;2.54;;;1.90;;
69837;SDS011;57135;51.992;4.476;2023-03-11T02:11:14;2.62;;;1.92;;
69837;SDS011;57135;51.992;4.476;2023-03-11T02:13:51;2.90;;;2.17;;
69837;SDS011;57135;51.992;4.476;2023-03-11T02:16:21;2.67;;;2.01;;
69837;SDS011;57135;51.992;4.476;2023-03-11T02:18:46;2.46;;;1.86;;
69837;SDS011;57135;51.992;4.476;2023-03-11T02:21:31;2.55;;;1.92;;
69837;SDS011;57135;51.992;4.476;2023-03-11T02:26:54;2.95;;;2.11;;
69837;SDS011;57135;51.992;4.476;2023-03-11T02:29:20;3.30;;;2.35;;
69837;SDS011;57135;51.992;4.476;2023-03-11T02:31:47;3.25;;;2.36;;
69837;SDS011;57135;51.992;4.476;2023-03-11T02:34:24;2.99;;;2.16;;
69837;SDS011;57135;51.992;4.476;2023-03-11T02:36:52;2.68;;;1.94;;
69837;SDS011;57135;51.992;4.476;2023-03-11T02:42:14;2.71;;;1.97;;
69837;SDS011;57135;51.992;4.476;2023-03-11T02:44:44;3.05;;;2.21;;
69837;SDS011;57135;51.992;4.476;2023-03-11T02:47:13;2.79;;;2.03;;
69837;SDS011;57135;51.992;4.476;2023-03-11T02:49:40;2.88;;;2.13;;
69837;SDS011;57135;51.992;4.476;2023-03-11T02:52:06;2.77;;;2.08;;
69837;SDS011;57135;51.992;4.476;2023-03-11T02:54:31;2.72;;;2.07;;
69837;SDS011;57135;51.992;4.476;2023-03-11T02:56:57;2.63;;;2.01;;
69837;SDS011;57135;51.992;4.476;2023-03-11T02:59:23;2.51;;;1.92;;
69837;SDS011;57135;51.992;4.476;2023-03-11T03:01:48;2.50;;;1.91;;
69837;SDS011;57135;51.992;4.476;2023-03-11T03:04:13;2.79;;;2.10;;
69837;SDS011;57135;51.992;4.476;2023-03-11T03:06:39;2.79;;;2.08;;
69837;SDS011;57135;51.992;4.476;2023-03-11T03:09:04;2.90;;;2.14;;
69837;SDS011;57135;51.992;4.476;2023-03-11T03:11:30;2.74;;;2.04;;
69837;SDS011;57135;51.992;4.476;2023-03-11T03:13:56;2.67;;;2.03;;
69837;SDS011;57135;51.992;4.476;2023-03-11T03:16:21;2.82;;;2.21;;
69837;SDS011;57135;51.992;4.476;2023-03-11T03:18:46;2.42;;;1.93;;
69837;SDS011;57135;51.992;4.476;2023-03-11T03:21:12;2.51;;;1.98;;
69837;SDS011;57135;51.992;4.476;2023-03-11T03:23:37;2.59;;;2.00;;
69837;SDS011;57135;51.992;4.476;2023-03-11T03:26:03;2.13;;;1.66;;
69837;SDS011;57135;51.992;4.476;2023-03-11T03:28:30;2.53;;;1.98;;
69837;SDS011;57135;51.992;4.476;2023-03-11T03:30:55;2.64;;;2.09;;
69837;SDS011;57135;51.992;4.476;2023-03-11T03:33:28;2.62;;;2.06;;
69837;SDS011;57135;51.992;4.476;2023-03-11T03:35:53;2.41;;;1.92;;
69837;SDS011;57135;51.992;4.476;2023-03-11T03:38:19;2.35;;;1.86;;
69837;SDS011;57135;51.992;4.476;2023-03-11T03:40:45;2.25;;;1.78;;
69837;SDS011;57135;51.992;4.476;2023-03-11T03:43:11;2.35;;;1.87;;
69837;SDS011;57135;51.992;4.476;2023-03-11T03:45:37;2.28;;;1.83;;
69837;SDS011;57135;51.992;4.476;2023-03-11T03:48:02;2.47;;;1.98;;
69837;SDS011;57135;51.992;4.476;2023-03-11T03:50:28;2.13;;;1.75;;
69837;SDS011;57135;51.992;4.476;2023-03-11T03:52:53;2.46;;;2.01;;
69837;SDS011;57135;51.992;4.476;2023-03-11T03:55:19;2.30;;;1.87;;
69837;SDS011;57135;51.992;4.476;2023-03-11T03:57:44;2.26;;;1.80;;
69837;SDS011;57135;51.992;4.476;2023-03-11T04:00:10;2.48;;;1.97;;
69837;SDS011;57135;51.992;4.476;2023-03-11T04:02:36;2.52;;;2.05;;
69837;SDS011;57135;51.992;4.476;2023-03-11T04:05:02;2.50;;;2.05;;
69837;SDS011;57135;51.992;4.476;2023-03-11T04:07:28;2.24;;;1.83;;
69837;SDS011;57135;51.992;4.476;2023-03-11T04:09:53;2.17;;;1.79;;
69837;SDS011;57135;51.992;4.476;2023-03-11T04:12:18;2.24;;;1.88;;
69837;SDS011;57135;51.992;4.476;2023-03-11T04:14:44;2.17;;;1.85;;
69837;SDS011;57135;51.992;4.476;2023-03-11T04:17:10;1.97;;;1.72;;
69837;SDS011;57135;51.992;4.476;2023-03-11T04:19:36;1.93;;;1.69;;
69837;SDS011;57135;51.992;4.476;2023-03-11T04:22:02;2.06;;;1.79;;
69837;SDS011;57135;51.992;4.476;2023-03-11T04:24:27;2.20;;;1.88;;
69837;SDS011;57135;51.992;4.476;2023-03-11T04:26:53;2.28;;;1.93;;
69837;SDS011;57135;51.992;4.476;2023-03-11T04:29:18;2.45;;;2.04;;
69837;SDS011;57135;51.992;4.476;2023-03-11T04:31:44;2.31;;;1.91;;
69837;SDS011;57135;51.992;4.476;2023-03-11T04:34:09;2.49;;;2.07;;
69837;SDS011;57135;51.992;4.476;2023-03-11T04:36:34;2.54;;;2.11;;
69837;SDS011;57135;51.992;4.476;2023-03-11T04:39:00;2.58;;;2.12;;
69837;SDS011;57135;51.992;4.476;2023-03-11T04:41:25;2.60;;;2.14;;
69837;SDS011;57135;51.992;4.476;2023-03-11T04:43:51;2.36;;;1.99;;
69837;SDS011;57135;51.992;4.476;2023-03-11T04:46:16;2.51;;;2.15;;
69837;SDS011;57135;51.992;4.476;2023-03-11T04:48:42;2.07;;;1.78;;
69837;SDS011;57135;51.992;4.476;2023-03-11T04:51:08;2.20;;;1.93;;
69837;SDS011;57135;51.992;4.476;2023-03-11T04:53:33;2.14;;;1.90;;
69837;SDS011;57135;51.992;4.476;2023-03-11T04:55:59;2.22;;;1.97;;
69837;SDS011;57135;51.992;4.476;2023-03-11T04:58:24;2.39;;;2.06;;
69837;SDS011;57135;51.992;4.476;2023-03-11T05:00:50;2.18;;;1.89;;
69837;SDS011;57135;51.992;4.476;2023-03-11T05:03:16;2.14;;;1.88;;
69837;SDS011;57135;51.992;4.476;2023-03-11T05:05:41;2.30;;;2.03;;
69837;SDS011;57135;51.992;4.476;2023-03-11T05:08:07;2.38;;;2.11;;
69837;SDS011;57135;51.992;4.476;2023-03-11T05:10:32;2.05;;;1.82;;
69837;SDS011;57135;51.992;4.476;2023-03-11T05:12:57;2.44;;;2.15;;
69837;SDS011;57135;51.992;4.476;2023-03-11T05:15:23;2.55;;;2.26;;
69837;SDS011;57135;51.992;4.476;2023-03-11T05:17:48;2.30;;;2.03;;
69837;SDS011;57135;51.992;4.476;2023-03-11T05:20:14;2.50;;;2.22;;
69837;SDS011;57135;51.992;4.476;2023-03-11T05:22:40;2.38;;;2.14;;
69837;SDS011;57135;51.992;4.476;2023-03-11T05:25:05;2.58;;;2.34;;
69837;SDS011;57135;51.992;4.476;2023-03-11T05:27:31;2.41;;;2.18;;
69837;SDS011;57135;51.992;4.476;2023-03-11T05:29:57;2.41;;;2.18;;
69837;SDS011;57135;51.992;4.476;2023-03-11T05:32:23;2.22;;;2.01;;
69837;SDS011;57135;51.992;4.476;2023-03-11T05:34:48;2.15;;;1.94;;
69837;SDS011;57135;51.992;4.476;2023-03-11T05:37:14;2.38;;;2.17;;
69837;SDS011;57135;51.992;4.476;2023-03-11T05:39:39;2.30;;;2.08;;
69837;SDS011;57135;51.992;4.476;2023-03-11T05:42:05;2.53;;;2.26;;
69837;SDS011;57135;51.992;4.476;2023-03-11T05:44:31;2.71;;;2.42;;
69837;SDS011;57135;51.992;4.476;2023-03-11T05:46:57;2.45;;;2.23;;
69837;SDS011;57135;51.992;4.476;2023-03-11T05:49:22;2.40;;;2.21;;
69837;SDS011;57135;51.992;4.476;2023-03-11T05:51:48;2.41;;;2.24;;
69837;SDS011;57135;51.992;4.476;2023-03-11T05:54:15;2.40;;;2.21;;
69837;SDS011;57135;51.992;4.476;2023-03-11T05:56:41;2.47;;;2.28;;
69837;SDS011;57135;51.992;4.476;2023-03-11T05:59:07;2.49;;;2.30;;
69837;SDS011;57135;51.992;4.476;2023-03-11T06:01:33;2.29;;;2.12;;
69837;SDS011;57135;51.992;4.476;2023-03-11T06:03:58;2.39;;;2.20;;
69837;SDS011;57135;51.992;4.476;2023-03-11T06:06:24;2.52;;;2.35;;
69837;SDS011;57135;51.992;4.476;2023-03-11T06:08:50;2.52;;;2.29;;
69837;SDS011;57135;51.992;4.476;2023-03-11T06:11:15;2.96;;;2.63;;
69837;SDS011;57135;51.992;4.476;2023-03-11T06:13:41;2.99;;;2.70;;
69837;SDS011;57135;51.992;4.476;2023-03-11T06:16:07;3.07;;;2.82;;
69837;SDS011;57135;51.992;4.476;2023-03-11T06:18:32;2.80;;;2.63;;
69837;SDS011;57135;51.992;4.476;2023-03-11T06:20:58;2.59;;;2.46;;
69837;SDS011;57135;51.992;4.476;2023-03-11T06:23:26;2.62;;;2.47;;
69837;SDS011;57135;51.992;4.476;2023-03-11T06:28:24;2.76;;;2.61;;
69837;SDS011;57135;51.992;4.476;2023-03-11T06:30:50;2.91;;;2.74;;
69837;SDS011;57135;51.992;4.476;2023-03-11T06:33:15;3.02;;;2.81;;
69837;SDS011;57135;51.992;4.476;2023-03-11T06:35:41;3.18;;;2.99;;
69837;SDS011;57135;51.992;4.476;2023-03-11T06:38:06;3.26;;;3.08;;
69837;SDS011;57135;51.992;4.476;2023-03-11T06:40:32;3.21;;;3.04;;
69837;SDS011;57135;51.992;4.476;2023-03-11T06:42:57;3.15;;;3.04;;
69837;SDS011;57135;51.992;4.476;2023-03-11T06:45:23;3.12;;;2.99;;
69837;SDS011;57135;51.992;4.476;2023-03-11T06:47:49;3.53;;;3.40;;
69837;SDS011;57135;51.992;4.476;2023-03-11T06:50:14;2.86;;;2.77;;
69837;SDS011;57135;51.992;4.476;2023-03-11T06:52:40;2.83;;;2.72;;
69837;SDS011;57135;51.992;4.476;2023-03-11T06:55:06;3.01;;;2.83;;
69837;SDS011;57135;51.992;4.476;2023-03-11T06:57:32;3.18;;;3.02;;
69837;SDS011;57135;51.992;4.476;2023-03-11T06:59:57;2.97;;;2.79;;
69837;SDS011;57135;51.992;4.476;2023-03-11T07:02:23;3.09;;;2.89;;
69837;SDS011;57135;51.992;4.476;2023-03-11T07:04:48;3.65;;;3.41;;
69837;SDS011;57135;51.992;4.476;2023-03-11T07:07:14;3.40;;;3.13;;
69837;SDS011;57135;51.992;4.476;2023-03-11T07:09:39;3.08;;;2.81;;
69837;SDS011;57135;51.992;4.476;2023-03-11T07:12:05;3.27;;;3.02;;
69837;SDS011;57135;51.992;4.476;2023-03-11T07:14:30;3.24;;;2.98;;
69837;SDS011;57135;51.992;4.476;2023-03-11T07:16:56;3.78;;;3.40;;
69837;SDS011;57135;51.992;4.476;2023-03-11T07:19:21;3.84;;;3.53;;
69837;SDS011;57135;51.992;4.476;2023-03-11T07:21:47;3.84;;;3.54;;
69837;SDS011;57135;51.992;4.476;2023-03-11T07:24:12;3.56;;;3.31;;
69837;SDS011;57135;51.992;4.476;2023-03-11T07:26:38;3.00;;;2.84;;
69837;SDS011;57135;51.992;4.476;2023-03-11T07:29:04;3.26;;;3.06;;
69837;SDS011;57135;51.992;4.476;2023-03-11T07:31:31;3.50;;;3.26;;
69837;SDS011;57135;51.992;4.476;2023-03-11T07:33:59;3.51;;;3.31;;
69837;SDS011;57135;51.992;4.476;2023-03-11T07:36:26;3.35;;;3.18;;
69837;SDS011;57135;51.992;4.476;2023-03-11T07:38:56;3.47;;;3.28;;
69837;SDS011;57135;51.992;4.476;2023-03-11T07:41:23;3.50;;;3.28;;
69837;SDS011;57135;51.992;4.476;2023-03-11T07:43:52;3.68;;;3.45;;
69837;SDS011;57135;51.992;4.476;2023-03-11T07:46:20;3.49;;;3.24;;
69837;SDS011;57135;51.992;4.476;2023-03-11T07:48:47;3.35;;;3.16;;
69837;SDS011;57135;51.992;4.476;2023-03-11T07:51:21;3.36;;;3.20;;
69837;SDS011;57135;51.992;4.476;2023-03-11T07:53:50;3.07;;;2.98;;
69837;SDS011;57135;51.992;4.476;2023-03-11T07:56:17;3.19;;;3.08;;
69837;SDS011;57135;51.992;4.476;2023-03-11T07:58:43;3.51;;;3.32;;
69837;SDS011;57135;51.992;4.476;2023-03-11T08:01:13;3.77;;;3.59;;
69837;SDS011;57135;51.992;4.476;2023-03-11T08:03:40;4.03;;;3.85;;
69837;SDS011;57135;51.992;4.476;2023-03-11T08:06:12;3.64;;;3.52;;
69837;SDS011;57135;51.992;4.476;2023-03-11T08:08:42;3.75;;;3.58;;
69837;SDS011;57135;51.992;4.476;2023-03-11T08:11:08;3.82;;;3.60;;
69837;SDS011;57135;51.992;4.476;2023-03-11T08:13:33;3.48;;;3.33;;
69837;SDS011;57135;51.992;4.476;2023-03-11T08:16:01;3.36;;;3.20;;
69837;SDS011;57135;51.992;4.476;2023-03-11T08:18:28;3.16;;;3.03;;
69837;SDS011;57135;51.992;4.476;2023-03-11T08:20:55;3.06;;;2.87;;
69837;SDS011;57135;51.992;4.476;2023-03-11T08:23:20;3.13;;;2.86;;
69837;SDS011;57135;51.992;4.476;2023-03-11T08:25:46;3.31;;;2.99;;
69837;SDS011;57135;51.992;4.476;2023-03-11T08:28:11;3.19;;;2.86;;
69837;SDS011;57135;51.992;4.476;2023-03-11T08:30:37;3.31;;;3.01;;
69837;SDS011;57135;51.992;4.476;2023-03-11T08:33:02;3.33;;;2.98;;
69837;SDS011;57135;51.992;4.476;2023-03-11T08:35:29;3.47;;;3.14;;
69837;SDS011;57135;51.992;4.476;2023-03-11T08:37:55;3.61;;;3.15;;
69837;SDS011;57135;51.992;4.476;2023-03-11T08:40:20;3.53;;;3.13;;
69837;SDS011;57135;51.992;4.476;2023-03-11T08:42:46;3.50;;;3.10;;
69837;SDS011;57135;51.992;4.476;2023-03-11T08:45:11;3.31;;;3.00;;
69837;SDS011;57135;51.992;4.476;2023-03-11T08:47:37;3.29;;;2.94;;
69837;SDS011;57135;51.992;4.476;2023-03-11T08:50:03;3.06;;;2.68;;
69837;SDS011;57135;51.992;4.476;2023-03-11T08:52:30;2.82;;;2.38;;
69837;SDS011;57135;51.992;4.476;2023-03-11T08:54:55;2.79;;;2.30;;
69837;SDS011;57135;51.992;4.476;2023-03-11T08:57:21;3.05;;;2.52;;
69837;SDS011;57135;51.992;4.476;2023-03-11T08:59:46;2.68;;;2.16;;
69837;SDS011;57135;51.992;4.476;2023-03-11T09:02:12;2.79;;;2.23;;
69837;SDS011;57135;51.992;4.476;2023-03-11T09:04:37;2.70;;;2.14;;
69837;SDS011;57135;51.992;4.476;2023-03-11T09:07:03;2.64;;;2.07;;
69837;SDS011;57135;51.992;4.476;2023-03-11T09:09:28;3.12;;;2.45;;
69837;SDS011;57135;51.992;4.476;2023-03-11T09:11:54;3.01;;;2.32;;
69837;SDS011;57135;51.992;4.476;2023-03-11T09:14:19;2.82;;;2.16;;
69837;SDS011;57135;51.992;4.476;2023-03-11T09:16:44;2.58;;;2.00;;
69837;SDS011;57135;51.992;4.476;2023-03-11T09:19:10;2.42;;;1.85;;
69837;SDS011;57135;51.992;4.476;2023-03-11T09:21:36;2.92;;;2.20;;
69837;SDS011;57135;51.992;4.476;2023-03-11T09:24:02;2.80;;;2.11;;
69837;SDS011;57135;51.992;4.476;2023-03-11T09:26:29;2.32;;;1.76;;
69837;SDS011;57135;51.992;4.476;2023-03-11T09:28:55;2.58;;;1.95;;
69837;SDS011;57135;51.992;4.476;2023-03-11T09:31:21;2.32;;;1.75;;
69837;SDS011;57135;51.992;4.476;2023-03-11T09:33:46;2.70;;;2.02;;
69837;SDS011;57135;51.992;4.476;2023-03-11T09:36:15;2.52;;;1.87;;
69837;SDS011;57135;51.992;4.476;2023-03-11T09:38:42;2.18;;;1.63;;
69837;SDS011;57135;51.992;4.476;2023-03-11T09:49:35;2.69;;;1.98;;
69837;SDS011;57135;51.992;4.476;2023-03-11T09:58:21;2.63;;;2.06;;
69837;SDS011;57135;51.992;4.476;2023-03-11T10:06:43;2.66;;;2.03;;
69837;SDS011;57135;51.992;4.476;2023-03-11T10:12:21;2.03;;;1.54;;
69837;SDS011;57135;51.992;4.476;2023-03-11T10:28:48;3.23;;;2.18;;
69837;SDS011;57135;51.992;4.476;2023-03-11T10:31:31;2.82;;;1.91;;
69837;SDS011;57135;51.992;4.476;2023-03-11T10:34:03;3.05;;;2.09;;
69837;SDS011;57135;51.992;4.476;2023-03-11T10:36:37;2.77;;;1.92;;
69837;SDS011;57135;51.992;4.476;2023-03-11T10:39:05;2.78;;;1.91;;
69837;SDS011;57135;51.992;4.476;2023-03-11T10:41:32;3.17;;;2.20;;
69837;SDS011;57135;51.992;4.476;2023-03-11T10:44:09;3.48;;;2.43;;
69837;SDS011;57135;51.992;4.476;2023-03-11T10:46:39;3.12;;;2.27;;
69837;SDS011;57135;51.992;4.476;2023-03-11T10:49:10;2.89;;;2.10;;
69837;SDS011;57135;51.992;4.476;2023-03-11T10:51:44;2.75;;;2.01;;
69837;SDS011;57135;51.992;4.476;2023-03-11T10:54:21;3.35;;;2.42;;
69837;SDS011;57135;51.992;4.476;2023-03-11T10:56:56;2.87;;;2.06;;
69837;SDS011;57135;51.992;4.476;2023-03-11T10:59:25;2.80;;;1.97;;
69837;SDS011;57135;51.992;4.476;2023-03-11T11:02:00;2.91;;;2.06;;
69837;SDS011;57135;51.992;4.476;2023-03-11T11:04:45;3.24;;;2.29;;
69837;SDS011;57135;51.992;4.476;2023-03-11T11:09:39;3.10;;;2.25;;
69837;SDS011;57135;51.992;4.476;2023-03-11T11:12:08;2.97;;;2.13;;
69837;SDS011;57135;51.992;4.476;2023-03-11T11:17:32;2.90;;;2.09;;
69837;SDS011;57135;51.992;4.476;2023-03-11T11:19:58;2.96;;;2.14;;
69837;SDS011;57135;51.992;4.476;2023-03-11T11:22:37;2.71;;;1.97;;
69837;SDS011;57135;51.992;4.476;2023-03-11T11:25:22;2.86;;;2.11;;
69837;SDS011;57135;51.992;4.476;2023-03-11T11:27:54;3.04;;;2.28;;
69837;SDS011;57135;51.992;4.476;2023-03-11T11:30:51;2.90;;;2.19;;
69837;SDS011;57135;51.992;4.476;2023-03-11T11:33:37;3.17;;;2.43;;
69837;SDS011;57135;51.992;4.476;2023-03-11T11:36:05;4.55;;;3.64;;
69837;SDS011;57135;51.992;4.476;2023-03-11T11:38:39;3.94;;;3.26;;
69837;SDS011;57135;51.992;4.476;2023-03-11T11:41:07;3.68;;;3.15;;
69837;SDS011;57135;51.992;4.476;2023-03-11T11:43:58;3.36;;;2.88;;
69837;SDS011;57135;51.992;4.476;2023-03-11T11:46:27;3.58;;;3.07;;
69837;SDS011;57135;51.992;4.476;2023-03-11T11:49:20;3.19;;;2.80;;
69837;SDS011;57135;51.992;4.476;2023-03-11T11:51:51;3.32;;;2.93;;
69837;SDS011;57135;51.992;4.476;2023-03-11T11:56:53;3.12;;;2.76;;
69837;SDS011;57135;51.992;4.476;2023-03-11T11:59:20;3.47;;;3.06;;
69837;SDS011;57135;51.992;4.476;2023-03-11T12:07:07;2.92;;;2.66;;
69837;SDS011;57135;51.992;4.476;2023-03-11T12:09:58;2.96;;;2.67;;
69837;SDS011;57135;51.992;4.476;2023-03-11T12:13:04;3.03;;;2.72;;
69837;SDS011;57135;51.992;4.476;2023-03-11T12:15:46;3.03;;;2.74;;
69837;SDS011;57135;51.992;4.476;2023-03-11T12:18:23;3.27;;;2.98;;
69837;SDS011;57135;51.992;4.476;2023-03-11T12:21:36;3.38;;;2.98;;
69837;SDS011;57135;51.992;4.476;2023-03-11T12:24:10;3.24;;;2.91;;
69837;SDS011;57135;51.992;4.476;2023-03-11T12:29:56;3.13;;;2.75;;
69837;SDS011;57135;51.992;4.476;2023-03-11T12:32:42;3.01;;;2.68;;
69837;SDS011;57135;51.992;4.476;2023-03-11T12:38:23;2.70;;;2.41;;
69837;SDS011;57135;51.992;4.476;2023-03-11T12:40:45;3.04;;;2.62;;
69837;SDS011;57135;51.992;4.476;2023-03-11T12:43:26;3.09;;;2.65;;
69837;SDS011;57135;51.992;4.476;2023-03-11T12:45:58;2.77;;;2.42;;
69837;SDS011;57135;51.992;4.476;2023-03-11T12:48:41;2.61;;;2.32;;
69837;SDS011;57135;51.992;4.476;2023-03-11T12:57:47;2.57;;;2.31;;
69837;SDS011;57135;51.992;4.476;2023-03-11T13:08:02;2.64;;;2.26;;
69837;SDS011;57135;51.992;4.476;2023-03-11T13:10:42;2.50;;;2.13;;
69837;SDS011;57135;51.992;4.476;2023-03-11T13:16:37;2.70;;;2.32;;
69837;SDS011;57135;51.992;4.476;2023-03-11T13:18:55;3.17;;;2.67;;
69837;SDS011;57135;51.992;4.476;2023-03-11T13:21:56;3.06;;;2.61;;
69837;SDS011;57135;51.992;4.476;2023-03-11T13:40:49;2.18;;;1.85;;
69837;SDS011;57135;51.992;4.476;2023-03-11T13:43:23;2.42;;;2.02;;
69837;SDS011;57135;51.992;4.476;2023-03-11T13:48:43;2.00;;;1.60;;
69837;SDS011;57135;51.992;4.476;2023-03-11T13:54:04;1.80;;;1.43;;
69837;SDS011;57135;51.992;4.476;2023-03-11T13:56:53;1.74;;;1.39;;
69837;SDS011;57135;51.992;4.476;2023-03-11T13:59:23;1.83;;;1.48;;
69837;SDS011;57135;51.992;4.476;2023-03-11T14:04:39;2.21;;;1.81;;
69837;SDS011;57135;51.992;4.476;2023-03-11T14:07:25;1.99;;;1.60;;
69837;SDS011;57135;51.992;4.476;2023-03-11T14:13:37;2.05;;;1.62;;
69837;SDS011;57135;51.992;4.476;2023-03-11T14:15:47;2.04;;;1.64;;
69837;SDS011;57135;51.992;4.476;2023-03-11T14:18:29;1.86;;;1.50;;
69837;SDS011;57135;51.992;4.476;2023-03-11T14:20:57;1.90;;;1.54;;
69837;SDS011;57135;51.992;4.476;2023-03-11T14:23:25;1.83;;;1.48;;
69837;SDS011;57135;51.992;4.476;2023-03-11T14:26:10;1.82;;;1.51;;
69837;SDS011;57135;51.992;4.476;2023-03-11T14:28:42;1.79;;;1.49;;
69837;SDS011;57135;51.992;4.476;2023-03-11T14:31:22;1.80;;;1.50;;
69837;SDS011;57135;51.992;4.476;2023-03-11T14:36:44;1.56;;;1.27;;
69837;SDS011;57135;51.992;4.476;2023-03-11T14:39:26;1.40;;;1.15;;
69837;SDS011;57135;51.992;4.476;2023-03-11T14:44:46;1.54;;;1.25;;
69837;SDS011;57135;51.992;4.476;2023-03-11T14:49:44;1.88;;;1.50;;
69837;SDS011;57135;51.992;4.476;2023-03-11T14:52:19;1.55;;;1.26;;
69837;SDS011;57135;51.992;4.476;2023-03-11T14:54:49;1.75;;;1.40;;
69837;SDS011;57135;51.992;4.476;2023-03-11T14:57:19;1.71;;;1.37;;
69837;SDS011;57135;51.992;4.476;2023-03-11T14:59:51;1.72;;;1.37;;
69837;SDS011;57135;51.992;4.476;2023-03-11T15:04:52;1.85;;;1.44;;
69837;SDS011;57135;51.992;4.476;2023-03-11T15:07:19;1.86;;;1.46;;
69837;SDS011;57135;51.992;4.476;2023-03-11T15:09:45;1.72;;;1.35;;
69837;SDS011;57135;51.992;4.476;2023-03-11T15:15:21;1.78;;;1.40;;
69837;SDS011;57135;51.992;4.476;2023-03-11T15:17:56;1.70;;;1.32;;
69837;SDS011;57135;51.992;4.476;2023-03-11T15:23:00;2.00;;;1.54;;
69837;SDS011;57135;51.992;4.476;2023-03-11T15:25:28;2.11;;;1.60;;
69837;SDS011;57135;51.992;4.476;2023-03-11T15:27:57;1.72;;;1.32;;
69837;SDS011;57135;51.992;4.476;2023-03-11T15:30:27;2.03;;;1.55;;
69837;SDS011;57135;51.992;4.476;2023-03-11T15:32:55;1.96;;;1.52;;
69837;SDS011;57135;51.992;4.476;2023-03-11T15:38:16;1.55;;;1.22;;
69837;SDS011;57135;51.992;4.476;2023-03-11T15:40:49;1.93;;;1.56;;
69837;SDS011;57135;51.992;4.476;2023-03-11T15:43:22;1.88;;;1.54;;
69837;SDS011;57135;51.992;4.476;2023-03-11T15:45:51;1.71;;;1.38;;
69837;SDS011;57135;51.992;4.476;2023-03-11T15:48:19;2.11;;;1.66;;
69837;SDS011;57135;51.992;4.476;2023-03-11T15:50:47;2.14;;;1.69;;
69837;SDS011;57135;51.992;4.476;2023-03-11T15:53:17;2.33;;;1.83;;
69837;SDS011;57135;51.992;4.476;2023-03-11T15:55:43;2.06;;;1.62;;
69837;SDS011;57135;51.992;4.476;2023-03-11T15:58:10;2.01;;;1.59;;
69837;SDS011;57135;51.992;4.476;2023-03-11T16:00:36;2.11;;;1.69;;
69837;SDS011;57135;51.992;4.476;2023-03-11T16:03:04;1.71;;;1.40;;
69837;SDS011;57135;51.992;4.476;2023-03-11T16:05:30;1.88;;;1.54;;
69837;SDS011;57135;51.992;4.476;2023-03-11T16:07:55;2.07;;;1.68;;
69837;SDS011;57135;51.992;4.476;2023-03-11T16:10:21;2.18;;;1.75;;
69837;SDS011;57135;51.992;4.476;2023-03-11T16:12:52;2.42;;;1.97;;
69837;SDS011;57135;51.992;4.476;2023-03-11T16:15:20;2.18;;;1.82;;
69837;SDS011;57135;51.992;4.476;2023-03-11T16:17:53;1.87;;;1.51;;
69837;SDS011;57135;51.992;4.476;2023-03-11T16:20:20;1.91;;;1.53;;
69837;SDS011;57135;51.992;4.476;2023-03-11T16:22:49;2.00;;;1.56;;
69837;SDS011;57135;51.992;4.476;2023-03-11T16:25:19;2.02;;;1.52;;
69837;SDS011;57135;51.992;4.476;2023-03-11T16:27:52;2.47;;;1.83;;
69837;SDS011;57135;51.992;4.476;2023-03-11T16:30:18;2.36;;;1.79;;
69837;SDS011;57135;51.992;4.476;2023-03-11T16:32:44;2.82;;;2.15;;
69837;SDS011;57135;51.992;4.476;2023-03-11T16:35:10;3.01;;;2.34;;
69837;SDS011;57135;51.992;4.476;2023-03-11T16:37:36;3.28;;;2.61;;
69837;SDS011;57135;51.992;4.476;2023-03-11T16:40:03;2.95;;;2.43;;
69837;SDS011;57135;51.992;4.476;2023-03-11T16:42:31;2.48;;;2.02;;
69837;SDS011;57135;51.992;4.476;2023-03-11T16:44:57;4.18;;;3.42;;
69837;SDS011;57135;51.992;4.476;2023-03-11T16:47:22;4.92;;;4.03;;
69837;SDS011;57135;51.992;4.476;2023-03-11T16:49:48;2.76;;;2.22;;
69837;SDS011;57135;51.992;4.476;2023-03-11T16:52:17;2.21;;;1.77;;
69837;SDS011;57135;51.992;4.476;2023-03-11T16:54:47;2.31;;;1.81;;
69837;SDS011;57135;51.992;4.476;2023-03-11T16:57:12;2.31;;;1.76;;
69837;SDS011;57135;51.992;4.476;2023-03-11T16:59:38;2.64;;;1.98;;
69837;SDS011;57135;51.992;4.476;2023-03-11T17:02:03;2.56;;;1.94;;
69837;SDS011;57135;51.992;4.476;2023-03-11T17:04:29;2.80;;;2.10;;
69837;SDS011;57135;51.992;4.476;2023-03-11T17:06:55;2.63;;;1.97;;